Time;durP1;ratioP1;P1;durP2;ratioP2;P2;SDS_P1;SDS_P2;PMS_P1;PMS_P2;Temp;Humidity;BMP_temperature;BMP_pressure;BME280_temperature;BME280_humidity;BME280_pressure;Samples;Min_cycle;Max_cycle;Signal;HPM_P1;HPM_P2
2022/05/11 05:00:43;;;;;;;7.17;6.57;;;17.10;97.20;;;;;;1742414;28;20232;-77
2022/05/11 05:01:34;;;;;;;8.18;7.47;;;17.10;97.20;;;;;;1742076;28;20203;-77
2022/05/11 05:02:28;;;;;;;8.75;8.05;;;17.10;97.20;;;;;;1742320;28;20643;-76
2022/05/11 05:03:19;;;;;;;7.88;7.18;;;17.10;97.20;;;;;;1742363;28;20595;-76
2022/05/11 05:04:10;;;;;;;8.27;7.67;;;17.10;97.20;;;;;;1742190;28;20196;-76
2022/05/11 05:05:05;;;;;;;7.65;7.05;;;17.10;97.20;;;;;;1742290;28;20199;-76
2022/05/11 05:05:56;;;;;;;8.38;7.78;;;17.10;97.20;;;;;;1741988;28;20261;-76
2022/05/11 05:06:47;;;;;;;8.15;7.40;;;17.10;97.20;;;;;;1742019;28;20238;-76
2022/05/11 05:07:40;;;;;;;7.33;6.73;;;17.10;97.20;;;;;;1742102;28;20195;-76
2022/05/11 05:08:31;;;;;;;8.43;7.65;;;17.10;97.20;;;;;;1741802;28;20195;-76
2022/05/11 05:09:23;;;;;;;7.93;7.23;;;17.20;97.20;;;;;;1742320;28;20191;-76
2022/05/11 05:10:15;;;;;;;7.60;6.95;;;17.20;97.20;;;;;;1742069;28;20691;-76
2022/05/11 05:11:07;;;;;;;7.70;7.00;;;17.20;97.20;;;;;;1742189;28;20571;-76
2022/05/11 05:11:58;;;;;;;7.55;6.85;;;17.20;97.20;;;;;;1742105;28;20238;-77
2022/05/11 05:12:49;;;;;;;7.87;7.27;;;17.20;97.20;;;;;;1741936;28;20195;-76
2022/05/11 05:13:40;;;;;;;7.20;6.70;;;17.30;97.20;;;;;;1741998;28;20206;-76
2022/05/11 05:14:32;;;;;;;8.10;7.07;;;17.30;97.20;;;;;;1742181;28;20209;-76
2022/05/11 05:15:22;;;;;;;7.80;7.20;;;17.30;97.20;;;;;;1742118;28;20738;-76
2022/05/11 05:16:16;;;;;;;7.70;7.10;;;17.30;97.20;;;;;;1742208;28;20195;-77
2022/05/11 05:17:09;;;;;;;7.50;6.90;;;17.30;97.20;;;;;;1742049;28;20219;-77
2022/05/11 05:18:01;;;;;;;8.57;7.78;;;17.40;97.20;;;;;;1742236;28;20286;-75
2022/05/11 05:18:52;;;;;;;7.22;6.72;;;17.40;97.20;;;;;;1741797;28;20237;-75
2022/05/11 05:19:46;;;;;;;8.53;7.27;;;17.40;97.20;;;;;;1741819;28;20203;-76
2022/05/11 05:20:37;;;;;;;7.75;7.05;;;17.40;97.20;;;;;;1742080;28;20983;-75
2022/05/11 05:21:29;;;;;;;6.75;6.25;;;17.40;97.20;;;;;;1742145;28;20658;-75
2022/05/11 05:22:20;;;;;;;8.07;7.30;;;17.40;97.20;;;;;;1742157;28;20199;-75
2022/05/11 05:23:11;;;;;;;8.03;7.23;;;17.50;97.20;;;;;;1742069;28;20676;-75
2022/05/11 05:24:03;;;;;;;8.10;7.50;;;17.50;97.20;;;;;;1741821;28;20241;-76
2022/05/11 05:24:54;;;;;;;7.38;6.78;;;17.50;97.20;;;;;;1742226;28;20195;-76
2022/05/11 05:25:45;;;;;;;7.47;6.78;;;17.50;97.20;;;;;;1742145;28;20624;-76
2022/05/11 05:26:40;;;;;;;7.30;6.70;;;17.60;97.20;;;;;;1741977;28;20260;-75
2022/05/11 05:27:31;;;;;;;7.13;6.53;;;17.60;97.20;;;;;;1748822;28;20227;-76
2022/05/11 05:31:53;;;;;;;7.57;7.03;;;17.70;97.20;;;;;;1739851;28;20286;-76
2022/05/11 05:32:44;;;;;;;8.02;7.43;;;17.70;97.20;;;;;;1741849;28;20689;-76
2022/05/11 05:33:39;;;;;;;7.00;6.40;;;17.70;97.20;;;;;;1742005;28;20650;-76
2022/05/11 05:34:29;;;;;;;7.28;6.72;;;17.70;97.20;;;;;;1742024;28;20476;-76
2022/05/11 05:35:21;;;;;;;7.70;7.10;;;17.70;97.20;;;;;;1743815;28;20203;-76
2022/05/11 05:36:12;;;;;;;7.40;6.80;;;17.70;97.20;;;;;;1748477;28;20453;-76
2022/05/11 05:37:05;;;;;;;7.57;6.90;;;17.70;97.20;;;;;;1748641;28;20209;-76
2022/05/11 05:37:55;;;;;;;7.97;7.38;;;17.70;97.20;;;;;;1748083;28;20991;-76
2022/05/11 05:38:47;;;;;;;6.73;6.23;;;17.80;97.20;;;;;;1748038;28;20594;-76
2022/05/11 05:39:38;;;;;;;7.95;7.35;;;17.80;97.20;;;;;;1748086;28;20653;-76
2022/05/11 05:40:30;;;;;;;8.43;7.83;;;17.80;97.20;;;;;;1748193;28;20563;-76
2022/05/11 05:41:21;;;;;;;7.88;7.18;;;17.80;97.20;;;;;;1742153;28;20206;-75
2022/05/11 05:42:18;;;;;;;7.53;6.82;;;17.80;97.20;;;;;;1742038;28;20199;-76
2022/05/11 05:43:09;;;;;;;7.68;6.93;;;17.90;97.20;;;;;;1741845;28;20241;-77
2022/05/11 05:44:01;;;;;;;7.40;6.80;;;17.90;97.20;;;;;;1741981;28;20658;-76
2022/05/11 05:44:52;;;;;;;8.20;7.50;;;17.90;97.20;;;;;;1741858;28;20206;-76
2022/05/11 05:45:47;;;;;;;7.68;7.07;;;17.90;97.20;;;;;;1741477;28;20227;-76
2022/05/11 05:46:39;;;;;;;7.20;6.50;;;17.90;97.20;;;;;;1741154;28;20214;-75
2022/05/11 05:47:32;;;;;;;9.07;8.20;;;18.00;97.20;;;;;;1743081;28;20223;-76
2022/05/11 05:48:23;;;;;;;7.05;6.55;;;18.00;97.20;;;;;;1738986;28;20211;-77
2022/05/11 05:49:15;;;;;;;7.63;7.13;;;18.00;97.20;;;;;;1742491;28;20290;-76
2022/05/11 05:50:07;;;;;;;6.80;6.20;;;18.10;97.20;;;;;;1741672;28;20959;-76
2022/05/11 05:51:11;;;;;;;7.65;7.00;;;18.10;97.20;;;;;;1740550;28;20944;-76
2022/05/11 05:52:03;;;;;;;8.23;7.10;;;18.10;97.20;;;;;;1743184;28;20235;-71
2022/05/11 05:52:55;;;;;;;7.95;7.15;;;18.20;97.20;;;;;;1746664;28;20202;-71
2022/05/11 05:53:46;;;;;;;7.22;6.63;;;18.20;97.20;;;;;;1741552;28;20259;-71
2022/05/11 05:54:38;;;;;;;8.73;6.90;;;18.20;97.20;;;;;;1741315;28;20276;-71
2022/05/11 05:55:29;;;;;;;8.60;7.15;;;18.30;97.20;;;;;;1741596;28;20574;-71
2022/05/11 05:56:20;;;;;;;7.27;6.60;;;18.30;97.20;;;;;;1741492;28;20755;-71
2022/05/11 05:57:11;;;;;;;8.65;7.63;;;18.30;97.20;;;;;;1741579;28;20223;-71
2022/05/11 05:58:03;;;;;;;6.90;6.30;;;18.30;97.20;;;;;;1741203;28;20203;-71
2022/05/11 05:58:58;;;;;;;7.70;7.00;;;18.30;97.20;;;;;;1741141;28;20257;-71
2022/05/11 05:59:50;;;;;;;7.10;6.60;;;18.30;97.20;;;;;;1741661;28;20207;-71
2022/05/11 06:00:41;;;;;;;7.05;6.43;;;18.40;97.20;;;;;;1743531;28;20203;-71
2022/05/11 06:01:33;;;;;;;7.00;6.40;;;18.40;97.20;;;;;;1742277;28;20282;-71
2022/05/11 06:02:24;;;;;;;8.15;7.53;;;18.40;97.20;;;;;;1741444;28;20202;-71
2022/05/11 06:03:22;;;;;;;7.20;6.50;;;18.50;97.20;;;;;;1742325;28;20202;-71
2022/05/11 06:04:14;;;;;;;7.70;6.90;;;18.50;97.20;;;;;;1741071;28;20195;-71
2022/05/11 06:05:07;;;;;;;7.30;6.70;;;18.50;97.20;;;;;;1740773;28;20300;-71
2022/05/11 06:05:58;;;;;;;7.50;6.90;;;18.50;97.20;;;;;;1744297;28;20191;-71
2022/05/11 06:06:50;;;;;;;9.07;6.50;;;18.60;97.20;;;;;;1743705;28;20214;-71
2022/05/11 06:07:41;;;;;;;7.47;6.78;;;18.60;97.20;;;;;;1741160;28;20928;-71
2022/05/11 06:08:33;;;;;;;7.43;6.85;;;18.60;97.20;;;;;;1740995;28;20195;-72
2022/05/11 06:09:23;;;;;;;7.07;6.47;;;18.60;97.20;;;;;;1741437;28;20263;-71
2022/05/11 06:10:15;;;;;;;6.93;6.33;;;18.70;97.20;;;;;;1741478;28;20203;-71
2022/05/11 06:11:07;;;;;;;7.20;6.60;;;18.70;97.20;;;;;;1741562;28;20235;-71
2022/05/11 06:11:59;;;;;;;7.35;6.85;;;18.70;97.20;;;;;;1741727;28;20199;-71
2022/05/11 06:12:49;;;;;;;6.65;6.03;;;18.70;97.20;;;;;;1742183;28;20203;-71
2022/05/11 06:13:45;;;;;;;7.80;7.20;;;18.80;97.20;;;;;;1742115;28;20283;-71
2022/05/11 06:14:36;;;;;;;7.50;6.90;;;18.80;97.20;;;;;;1743732;28;20222;-71
2022/05/11 06:15:28;;;;;;;7.43;6.82;;;18.80;97.20;;;;;;1741243;28;20245;-71
2022/05/11 06:16:19;;;;;;;7.72;6.13;;;18.90;97.20;;;;;;1740675;28;20206;-71
2022/05/11 06:17:15;;;;;;;7.10;6.60;;;18.90;97.20;;;;;;1742312;28;20273;-71
2022/05/11 06:18:08;;;;;;;7.30;6.68;;;18.90;97.20;;;;;;1744960;28;20647;-71
2022/05/11 06:19:01;;;;;;;6.50;6.00;;;18.90;97.20;;;;;;1746191;28;20277;-71
2022/05/11 06:19:53;;;;;;;6.88;6.28;;;19.00;97.20;;;;;;1743560;28;20251;-71
2022/05/11 06:20:44;;;;;;;6.90;6.40;;;19.00;97.20;;;;;;1740889;28;20203;-71
2022/05/11 06:21:35;;;;;;;6.75;6.15;;;19.00;97.20;;;;;;1740845;28;20241;-71
2022/05/11 06:22:27;;;;;;;7.83;7.13;;;19.10;97.20;;;;;;1741546;28;20206;-71
2022/05/11 06:23:18;;;;;;;6.63;6.13;;;19.10;97.20;;;;;;1741640;28;20506;-71
2022/05/11 06:24:10;;;;;;;7.00;6.35;;;19.10;97.20;;;;;;1741292;28;20222;-71
2022/05/11 06:25:01;;;;;;;7.00;6.50;;;19.20;97.20;;;;;;1741452;28;20226;-71
2022/05/11 06:25:53;;;;;;;7.40;6.80;;;19.20;97.20;;;;;;1742381;28;20199;-72
2022/05/11 06:26:43;;;;;;;6.30;5.80;;;19.20;97.20;;;;;;1741333;28;20456;-71
2022/05/11 06:27:35;;;;;;;6.07;5.57;;;19.30;97.20;;;;;;1744765;28;20648;-71
2022/05/11 06:28:26;;;;;;;6.50;5.90;;;19.30;97.20;;;;;;1746965;28;20202;-71
2022/05/11 06:29:17;;;;;;;6.33;5.73;;;19.30;97.20;;;;;;1741527;28;20270;-71
2022/05/11 06:30:09;;;;;;;6.97;6.43;;;19.40;97.20;;;;;;1743104;28;20685;-71
2022/05/11 06:31:01;;;;;;;6.40;5.90;;;19.40;97.20;;;;;;1741167;28;20677;-71
2022/05/11 06:31:53;;;;;;;6.13;5.63;;;19.40;97.20;;;;;;1741333;28;20203;-71
2022/05/11 06:32:43;;;;;;;9.20;6.60;;;19.50;97.20;;;;;;1741505;28;20199;-71
2022/05/11 06:33:35;;;;;;;7.10;6.57;;;19.50;97.20;;;;;;1741311;28;20191;-71
2022/05/11 06:34:27;;;;;;;6.32;5.82;;;19.60;97.20;;;;;;1741393;28;20192;-71
2022/05/11 06:35:19;;;;;;;6.55;5.95;;;19.60;97.20;;;;;;1741303;28;20264;-71
2022/05/11 06:36:10;;;;;;;6.53;6.03;;;19.70;97.20;;;;;;1741590;28;20605;-71
2022/05/11 06:37:02;;;;;;;6.50;6.00;;;19.70;97.20;;;;;;1741413;28;20209;-71
2022/05/11 06:37:54;;;;;;;7.00;6.40;;;19.70;97.20;;;;;;1741472;28;20214;-71
2022/05/11 06:38:47;;;;;;;6.25;5.75;;;19.80;97.20;;;;;;1741167;28;20206;-71
2022/05/11 06:39:38;;;;;;;6.18;5.60;;;19.80;97.20;;;;;;1741461;28;20262;-71
2022/05/11 06:40:30;;;;;;;6.00;5.60;;;19.90;97.20;;;;;;1741403;28;20246;-71
2022/05/11 06:41:23;;;;;;;6.20;5.75;;;19.90;97.20;;;;;;1741445;28;20203;-71
2022/05/11 06:42:16;;;;;;;6.50;6.00;;;19.90;97.20;;;;;;1745010;28;20190;-71
2022/05/11 06:43:06;;;;;;;7.03;5.55;;;19.90;97.20;;;;;;1748140;28;20214;-71
2022/05/11 06:43:58;;;;;;;6.63;6.03;;;20.00;97.20;;;;;;1742451;28;20274;-71
2022/05/11 06:44:50;;;;;;;6.47;5.88;;;20.00;97.20;;;;;;1740813;28;20203;-71
2022/05/11 06:45:41;;;;;;;6.30;5.90;;;20.00;97.20;;;;;;1741211;28;20199;-71
2022/05/11 06:46:33;;;;;;;5.70;5.28;;;20.10;97.20;;;;;;1741206;28;20218;-70
2022/05/11 06:47:24;;;;;;;6.43;5.93;;;20.10;97.20;;;;;;1741193;28;20259;-71
2022/05/11 06:48:15;;;;;;;5.82;5.43;;;20.20;97.20;;;;;;1740931;28;20203;-71
2022/05/11 06:49:07;;;;;;;6.17;5.70;;;20.20;97.20;;;;;;1741412;28;20191;-71
2022/05/11 06:49:59;;;;;;;5.82;5.32;;;20.20;97.20;;;;;;1741253;28;20663;-71
2022/05/11 06:50:51;;;;;;;7.65;5.40;;;20.30;97.20;;;;;;1741372;28;20876;-71
2022/05/11 06:51:42;;;;;;;6.68;6.10;;;20.30;97.20;;;;;;1741285;28;20202;-71
2022/05/11 06:52:33;;;;;;;6.77;6.07;;;20.30;97.20;;;;;;1741324;28;20195;-70
2022/05/11 06:53:24;;;;;;;5.93;5.50;;;20.40;97.20;;;;;;1741207;28;20195;-71
2022/05/11 06:59:24;;;;;;;6.68;6.07;;;20.50;97.20;;;;;;1712871;28;20582;-71
2022/05/11 07:00:15;;;;;;;5.90;5.50;;;20.50;97.20;;;;;;1713340;28;20792;-70
2022/05/11 07:01:07;;;;;;;5.65;5.25;;;20.50;97.20;;;;;;1713350;28;20245;-71
2022/05/11 07:01:59;;;;;;;6.47;5.82;;;20.50;97.20;;;;;;1730136;28;20239;-71
2022/05/11 07:02:51;;;;;;;5.30;4.90;;;20.50;97.20;;;;;;1734410;28;20200;-71
2022/05/11 07:03:41;;;;;;;6.20;5.70;;;20.60;97.20;;;;;;1739163;28;20199;-71
2022/05/11 07:04:35;;;;;;;6.40;5.90;;;20.60;97.20;;;;;;1741189;28;20194;-71
2022/05/11 07:05:29;;;;;;;5.45;5.05;;;20.70;97.20;;;;;;1741302;28;20449;-70
2022/05/11 07:06:21;;;;;;;5.70;5.30;;;20.70;97.20;;;;;;1741185;28;20341;-71
2022/05/11 07:07:11;;;;;;;6.95;5.50;;;20.70;97.20;;;;;;1741018;28;20216;-71
2022/05/11 07:08:03;;;;;;;5.67;5.27;;;20.80;97.20;;;;;;1741278;28;20210;-71
2022/05/11 07:08:54;;;;;;;5.40;5.00;;;20.80;97.20;;;;;;1741035;28;20798;-70
2022/05/11 07:09:46;;;;;;;6.40;5.90;;;20.80;97.20;;;;;;1741069;28;20576;-71
2022/05/11 07:10:37;;;;;;;5.40;5.00;;;20.80;97.20;;;;;;1741112;28;20236;-71
2022/05/11 07:12:45;;;;;;;5.57;5.18;;;20.90;97.20;;;;;;1741201;28;20426;-71
2022/05/11 07:13:36;;;;;;;5.20;4.80;;;21.00;97.20;;;;;;1741127;28;20203;-71
2022/05/11 07:14:28;;;;;;;5.73;5.33;;;21.00;97.20;;;;;;1741350;28;20666;-71
2022/05/11 07:15:21;;;;;;;5.50;5.10;;;21.10;97.20;;;;;;1742115;28;20222;-71
2022/05/11 07:16:12;;;;;;;5.72;5.10;;;21.10;97.20;;;;;;1741112;28;20676;-71
2022/05/11 07:17:05;;;;;;;5.00;4.70;;;21.20;97.20;;;;;;1741163;28;20552;-71
2022/05/11 07:17:59;;;;;;;5.40;5.00;;;21.20;97.20;;;;;;1741077;28;20470;-71
2022/05/11 07:18:50;;;;;;;8.50;5.35;;;21.20;97.20;;;;;;1740568;28;20591;-71
2022/05/11 07:19:43;;;;;;;5.97;5.57;;;21.30;97.20;;;;;;1740476;28;20230;-71
2022/05/11 07:20:36;;;;;;;5.13;4.72;;;21.30;97.20;;;;;;1741162;28;20214;-71
2022/05/11 07:21:28;;;;;;;5.03;4.63;;;21.30;97.20;;;;;;1741140;28;20206;-71
2022/05/11 07:22:19;;;;;;;7.28;5.90;;;21.30;97.20;;;;;;1741084;28;20226;-70
2022/05/11 07:23:12;;;;;;;5.50;5.10;;;21.40;97.20;;;;;;1741214;28;20282;-71
2022/05/11 07:24:03;;;;;;;5.78;5.35;;;21.40;97.20;;;;;;1741421;28;20446;-71
2022/05/11 07:24:55;;;;;;;5.83;5.27;;;21.40;97.20;;;;;;1741206;28;20199;-71
2022/05/11 07:25:45;;;;;;;5.95;5.45;;;21.50;97.20;;;;;;1741054;28;20461;-71
2022/05/11 07:26:37;;;;;;;7.33;5.60;;;21.50;97.20;;;;;;1741110;28;20202;-70
2022/05/11 07:27:29;;;;;;;6.03;4.82;;;21.50;97.20;;;;;;1741030;28;20664;-71
2022/05/11 07:28:20;;;;;;;5.95;5.45;;;21.60;97.20;;;;;;1740635;28;20293;-70
2022/05/11 07:29:11;;;;;;;5.87;5.47;;;21.60;97.20;;;;;;1741146;28;20195;-71
2022/05/11 07:30:05;;;;;;;5.38;4.88;;;21.60;97.20;;;;;;1741005;28;20260;-71
2022/05/11 07:30:55;;;;;;;5.15;4.75;;;21.70;97.20;;;;;;1740990;28;20227;-71
2022/05/11 07:31:47;;;;;;;5.30;5.00;;;21.70;97.20;;;;;;1741078;28;20665;-71
2022/05/11 07:32:39;;;;;;;4.70;4.40;;;21.70;97.20;;;;;;1740966;28;20195;-71
2022/05/11 07:33:31;;;;;;;5.90;5.40;;;21.80;97.20;;;;;;1740922;28;20705;-71
2022/05/11 07:34:23;;;;;;;4.65;4.25;;;21.80;97.20;;;;;;1740971;28;20191;-71
2022/05/11 07:35:15;;;;;;;5.20;4.80;;;21.80;97.20;;;;;;1741027;28;20705;-71
2022/05/11 07:36:07;;;;;;;5.25;4.88;;;21.90;97.20;;;;;;1741104;28;20210;-70
2022/05/11 07:36:59;;;;;;;5.30;4.90;;;21.90;97.20;;;;;;1740987;28;20946;-71
2022/05/11 07:37:50;;;;;;;21.05;5.00;;;22.00;97.20;;;;;;1741005;28;20199;-71
2022/05/11 07:38:41;;;;;;;5.15;4.72;;;22.00;97.20;;;;;;1740770;28;20687;-71
2022/05/11 07:39:33;;;;;;;5.57;4.97;;;22.00;97.20;;;;;;1740926;28;20222;-70
2022/05/11 07:40:24;;;;;;;4.75;4.40;;;22.00;97.20;;;;;;1740896;28;20460;-71
2022/05/11 07:41:16;;;;;;;5.30;4.80;;;22.00;97.20;;;;;;1741041;28;20208;-71
2022/05/11 07:42:07;;;;;;;5.18;4.78;;;22.10;97.20;;;;;;1741077;28;20222;-71
2022/05/11 07:43:00;;;;;;;5.22;4.93;;;22.10;97.20;;;;;;1742661;28;20230;-71
2022/05/11 07:43:51;;;;;;;5.15;4.75;;;22.20;97.20;;;;;;1747909;28;20297;-71
2022/05/11 07:44:43;;;;;;;5.60;5.20;;;22.20;97.20;;;;;;1747984;28;20248;-71
2022/05/11 07:45:35;;;;;;;5.70;5.30;;;22.20;97.20;;;;;;1747841;28;20194;-71
2022/05/11 07:46:33;;;;;;;5.50;5.05;;;22.30;97.20;;;;;;1747958;28;20195;-71
2022/05/11 07:47:26;;;;;;;5.50;5.10;;;22.30;97.20;;;;;;1747772;28;20720;-71
2022/05/11 07:48:20;;;;;;;5.22;4.82;;;22.30;97.20;;;;;;1747464;28;20245;-71
2022/05/11 07:49:12;;;;;;;5.43;4.70;;;22.30;97.20;;;;;;1741855;28;20200;-71
2022/05/11 07:50:03;;;;;;;5.13;4.72;;;22.40;97.20;;;;;;1741106;28;20230;-70
2022/05/11 07:50:55;;;;;;;5.82;5.22;;;22.40;97.20;;;;;;1740800;28;20198;-71
2022/05/11 07:51:49;;;;;;;5.68;5.18;;;22.40;97.20;;;;;;1740956;28;20709;-71
2022/05/11 07:52:41;;;;;;;4.97;4.68;;;22.40;97.20;;;;;;1740864;28;20203;-71
2022/05/11 07:53:32;;;;;;;4.82;4.50;;;22.50;97.20;;;;;;1740872;28;20286;-71
2022/05/11 07:54:24;;;;;;;4.97;4.67;;;22.50;97.20;;;;;;1740884;28;20202;-71
2022/05/11 07:55:17;;;;;;;5.35;4.53;;;22.60;97.20;;;;;;1740905;28;20446;-71
2022/05/11 07:59:56;;;;;;;4.72;4.32;;;22.80;97.20;;;;;;1714465;28;20784;-71
2022/05/11 08:00:48;;;;;;;5.50;4.95;;;22.90;97.20;;;;;;1738123;28;20678;-71
2022/05/11 08:01:39;;;;;;;6.43;5.00;;;22.90;97.20;;;;;;1738707;28;20191;-70
2022/05/11 08:02:33;;;;;;;4.93;4.40;;;22.90;97.20;;;;;;1740970;28;20222;-71
2022/05/11 08:03:25;;;;;;;5.45;4.70;;;23.00;97.20;;;;;;1742630;28;20494;-71
2022/05/11 08:04:15;;;;;;;5.13;4.65;;;23.00;97.20;;;;;;1747561;28;20195;-71
2022/05/11 08:05:10;;;;;;;4.67;4.37;;;23.00;97.20;;;;;;1741491;28;20801;-71
2022/05/11 08:06:04;;;;;;;4.82;4.43;;;23.10;97.20;;;;;;1742259;28;20242;-71
2022/05/11 08:06:57;;;;;;;6.80;4.70;;;23.20;97.20;;;;;;1740092;28;20272;-71
2022/05/11 08:07:50;;;;;;;4.80;4.50;;;23.20;97.20;;;;;;1740432;28;20211;-71
2022/05/11 08:08:41;;;;;;;5.35;4.85;;;23.30;97.20;;;;;;1740557;28;20242;-71
2022/05/11 08:09:33;;;;;;;5.30;4.80;;;23.40;97.20;;;;;;1740039;28;20702;-71
2022/05/11 08:10:29;;;;;;;5.10;4.60;;;23.40;97.20;;;;;;1740507;28;20607;-71
2022/05/11 08:11:20;;;;;;;5.65;5.15;;;23.50;97.20;;;;;;1740485;28;20286;-71
2022/05/11 08:12:11;;;;;;;4.90;4.50;;;23.50;97.20;;;;;;1740387;28;20195;-71
2022/05/11 08:13:07;;;;;;;4.67;4.37;;;23.50;97.20;;;;;;1740427;28;20290;-71
2022/05/11 08:13:58;;;;;;;8.18;4.60;;;23.50;97.20;;;;;;1740931;28;20211;-71
2022/05/11 08:14:49;;;;;;;4.70;4.30;;;23.60;97.20;;;;;;1740883;28;20199;-71
2022/05/11 08:15:43;;;;;;;4.60;4.20;;;23.60;97.20;;;;;;1740781;28;20449;-71
2022/05/11 08:16:35;;;;;;;4.70;4.30;;;23.60;97.20;;;;;;1740765;28;20253;-71
2022/05/11 08:17:27;;;;;;;5.10;4.60;;;23.70;97.20;;;;;;1740868;28;20219;-71
2022/05/11 08:18:19;;;;;;;4.97;4.57;;;23.70;97.20;;;;;;1740462;28;20261;-71
2022/05/11 08:19:10;;;;;;;6.45;4.90;;;23.70;97.20;;;;;;1740810;28;20211;-71
2022/05/11 08:20:07;;;;;;;4.90;4.40;;;23.70;97.20;;;;;;1740708;28;20285;-71
2022/05/11 08:20:58;;;;;;;4.85;4.45;;;23.80;97.20;;;;;;1740895;28;20537;-71
2022/05/11 08:21:51;;;;;;;4.70;4.40;;;23.80;97.20;;;;;;1740633;28;20206;-71
2022/05/11 08:22:45;;;;;;;5.75;4.20;;;23.80;97.20;;;;;;1740800;28;20453;-71
2022/05/11 08:23:38;;;;;;;4.90;4.50;;;23.80;97.20;;;;;;1741786;28;20199;-71
2022/05/11 08:24:31;;;;;;;5.45;4.95;;;23.90;97.20;;;;;;1740875;28;20198;-71
2022/05/11 08:25:25;;;;;;;4.65;4.32;;;23.90;97.20;;;;;;1740885;28;20230;-72
2022/05/11 08:26:16;;;;;;;5.60;5.10;;;24.00;97.20;;;;;;1740755;28;20207;-71
2022/05/11 08:27:09;;;;;;;5.10;4.77;;;24.00;97.20;;;;;;1740857;28;20219;-71
2022/05/11 08:28:01;;;;;;;5.78;4.78;;;24.10;97.20;;;;;;1740846;28;20477;-71
2022/05/11 08:28:53;;;;;;;4.47;4.18;;;24.10;97.20;;;;;;1740410;28;20202;-71
2022/05/11 08:33:19;;;;;;;4.80;4.40;;;24.30;97.20;;;;;;1742359;28;20202;-71
2022/05/11 08:34:11;;;;;;;5.18;4.78;;;24.30;97.20;;;;;;1742274;28;20203;-70
2022/05/11 08:35:01;;;;;;;5.40;4.93;;;24.30;97.20;;;;;;1742242;28;20234;-71
2022/05/11 08:35:56;;;;;;;4.77;4.37;;;24.40;97.20;;;;;;1742215;28;20205;-71
2022/05/11 08:36:47;;;;;;;5.72;4.68;;;24.40;97.20;;;;;;1742071;28;20678;-71
2022/05/11 08:37:39;;;;;;;5.30;4.90;;;24.40;97.20;;;;;;1742108;28;20596;-71
2022/05/11 08:38:34;;;;;;;5.38;4.97;;;24.50;97.20;;;;;;1741845;28;20249;-71
2022/05/11 08:39:26;;;;;;;4.70;4.40;;;24.50;97.20;;;;;;1742126;28;20199;-71
2022/05/11 08:40:22;;;;;;;8.10;4.82;;;24.60;97.20;;;;;;1741682;28;20277;-71
2022/05/11 08:41:26;;;;;;;8.18;6.95;;;24.60;97.20;;;;;;1740540;28;20223;-71
2022/05/11 08:42:16;;;;;;;6.75;5.38;;;24.70;97.20;;;;;;1742168;28;20202;-71
2022/05/11 08:43:12;;;;;;;4.77;4.37;;;24.70;97.20;;;;;;1745155;28;20198;-71
2022/05/11 08:44:08;;;;;;;5.53;5.03;;;24.80;97.20;;;;;;1748143;28;20222;-71
2022/05/11 08:45:01;;;;;;;5.68;5.20;;;24.90;97.20;;;;;;1742121;28;20640;-71
2022/05/11 08:46:02;;;;;;;5.03;4.63;;;25.00;97.20;;;;;;1742007;28;20202;-71
2022/05/11 08:47:03;;;;;;;4.75;4.30;;;25.00;97.20;;;;;;1741881;28;20203;-71
2022/05/11 08:47:54;;;;;;;5.68;5.10;;;25.10;97.20;;;;;;1742086;28;21016;-71
2022/05/11 08:48:56;;;;;;;5.27;4.87;;;25.10;97.20;;;;;;1741829;28;20585;-71
2022/05/11 08:49:52;;;;;;;4.95;4.55;;;25.20;97.20;;;;;;1748288;28;20490;-71
2022/05/11 08:50:46;;;;;;;8.07;5.20;;;25.30;97.20;;;;;;1749151;28;20210;-71
2022/05/11 08:51:42;;;;;;;5.35;4.85;;;25.40;97.20;;;;;;1748989;28;20210;-71
2022/05/11 08:52:40;;;;;;;5.43;5.00;;;25.40;97.20;;;;;;1748879;28;20206;-71
2022/05/11 08:53:38;;;;;;;5.53;5.03;;;25.50;97.20;;;;;;1748930;28;20252;-71
2022/05/11 08:54:41;;;;;;;5.95;5.35;;;25.50;97.20;;;;;;1748980;28;20228;-71
2022/05/11 08:55:47;;;;;;;6.07;5.57;;;25.50;97.20;;;;;;1748928;28;20226;-71
2022/05/11 08:56:39;;;;;;;6.03;5.53;;;25.50;97.20;;;;;;1748929;28;20233;-71
2022/05/11 08:57:36;;;;;;;6.00;5.50;;;25.60;97.20;;;;;;1747448;28;20218;-71
2022/05/11 08:58:33;;;;;;;5.22;4.88;;;25.60;97.20;;;;;;1741732;28;20595;-71
2022/05/11 08:59:28;;;;;;;5.85;5.40;;;25.60;97.20;;;;;;1741887;28;20244;-71
2022/05/11 09:00:19;;;;;;;5.43;4.95;;;25.70;97.20;;;;;;1741817;28;20223;-71
2022/05/11 09:01:19;;;;;;;5.45;5.13;;;25.70;97.20;;;;;;1742102;28;20223;-71
2022/05/11 09:02:19;;;;;;;5.32;4.93;;;25.80;97.20;;;;;;1742062;28;20222;-71
2022/05/11 09:03:31;;;;;;;5.88;5.38;;;25.80;97.20;;;;;;1742093;28;20623;-71
2022/05/11 09:04:28;;;;;;;6.07;5.35;;;25.80;97.20;;;;;;1741922;28;20203;-71
2022/05/11 09:05:23;;;;;;;5.10;4.80;;;25.90;97.20;;;;;;1742102;28;20252;-71
2022/05/11 09:06:17;;;;;;;5.70;5.00;;;25.90;97.20;;;;;;1742040;28;20203;-71
2022/05/11 09:07:10;;;;;;;4.95;4.65;;;26.00;97.20;;;;;;1741881;28;20313;-71
2022/05/11 09:08:04;;;;;;;5.80;5.40;;;26.00;97.20;;;;;;1741884;28;20218;-71
2022/05/11 09:08:59;;;;;;;5.75;5.35;;;26.00;97.20;;;;;;1741667;28;20203;-71
2022/05/11 09:09:53;;;;;;;5.70;5.20;;;26.10;97.20;;;;;;1741862;28;20679;-71
2022/05/11 09:10:45;;;;;;;6.00;4.88;;;26.10;97.20;;;;;;1742142;28;20214;-71
2022/05/11 09:11:43;;;;;;;5.50;5.10;;;26.10;97.20;;;;;;1741883;28;20195;-71
2022/05/11 09:12:34;;;;;;;7.38;5.32;;;26.20;97.20;;;;;;1742008;28;20237;-71
2022/05/11 09:13:27;;;;;;;5.60;5.10;;;26.20;97.20;;;;;;1741896;28;20206;-71
2022/05/11 09:14:25;;;;;;;6.60;5.45;;;26.20;97.20;;;;;;1742905;28;20618;-71
2022/05/11 09:15:17;;;;;;;5.30;4.90;;;26.20;97.20;;;;;;1742004;28;20282;-71
2022/05/11 09:16:18;;;;;;;5.78;5.20;;;26.20;97.20;;;;;;1742085;28;20204;-71
2022/05/11 09:17:22;;;;;;;5.30;4.80;;;26.30;97.20;;;;;;1741876;28;20259;-71
2022/05/11 09:18:13;;;;;;;5.30;4.97;;;26.30;97.20;;;;;;1741944;28;20199;-71
2022/05/11 09:19:13;;;;;;;7.15;5.30;;;26.30;97.20;;;;;;1741529;28;20218;-71
2022/05/11 09:20:07;;;;;;;6.03;5.40;;;26.30;97.20;;;;;;1741786;28;20210;-71
2022/05/11 09:21:01;;;;;;;7.90;5.75;;;26.40;97.20;;;;;;1741850;28;20225;-71
2022/05/11 09:21:54;;;;;;;5.93;5.43;;;26.50;97.20;;;;;;1741920;28;20207;-71
2022/05/11 09:23:02;;;;;;;5.65;5.25;;;26.50;97.20;;;;;;1741971;28;20199;-71
2022/05/11 09:24:08;;;;;;;6.00;5.60;;;26.50;97.20;;;;;;1741946;28;20210;-71
2022/05/11 09:25:02;;;;;;;7.10;6.15;;;26.60;97.20;;;;;;1741865;28;20211;-71
2022/05/11 09:25:58;;;;;;;7.30;6.60;;;26.70;97.20;;;;;;1741883;28;20238;-71
2022/05/11 09:27:03;;;;;;;8.05;7.45;;;26.80;97.20;;;;;;1741890;28;20203;-71
2022/05/11 09:28:13;;;;;;;6.32;5.75;;;26.90;97.20;;;;;;1742032;28;20662;-71
2022/05/11 09:29:21;;;;;;;5.10;4.70;;;27.00;97.20;;;;;;1741702;28;20199;-71
2022/05/11 09:30:19;;;;;;;6.47;5.68;;;27.10;97.20;;;;;;1737216;28;20208;-71
2022/05/11 09:31:13;;;;;;;6.50;6.03;;;27.20;97.20;;;;;;1748678;28;20210;-71
2022/05/11 09:32:29;;;;;;;5.38;4.97;;;27.20;97.20;;;;;;1748701;28;20284;-71
2022/05/11 09:33:23;;;;;;;6.63;5.95;;;27.20;97.20;;;;;;1748741;28;20233;-71
2022/05/11 09:34:25;;;;;;;6.53;5.93;;;27.30;97.20;;;;;;1748678;28;20201;-71
2022/05/11 09:35:20;;;;;;;7.15;5.65;;;27.30;97.20;;;;;;1743677;28;20202;-71
2022/05/11 09:36:12;;;;;;;5.97;5.40;;;27.40;97.20;;;;;;1742300;28;20279;-71
2022/05/11 09:37:18;;;;;;;5.63;5.22;;;27.40;97.20;;;;;;1743183;28;20198;-71
2022/05/11 09:38:32;;;;;;;5.80;5.30;;;27.40;97.20;;;;;;1741632;28;20566;-71
2022/05/11 09:39:27;;;;;;;6.13;5.68;;;27.30;97.20;;;;;;1740977;28;20215;-71
2022/05/11 09:40:21;;;;;;;5.47;5.07;;;27.40;97.20;;;;;;1741694;28;20575;-71
2022/05/11 09:41:21;;;;;;;6.47;5.97;;;27.30;97.20;;;;;;1741708;28;20207;-71
2022/05/11 09:42:15;;;;;;;6.65;5.45;;;27.30;97.20;;;;;;1741346;28;20240;-70
2022/05/11 09:43:08;;;;;;;5.70;5.30;;;27.40;97.20;;;;;;1744328;28;20195;-71
2022/05/11 09:44:00;;;;;;;6.20;5.60;;;27.30;97.20;;;;;;1746879;28;20198;-71
2022/05/11 09:44:52;;;;;;;6.78;5.53;;;27.30;97.20;;;;;;1744907;28;20195;-71
2022/05/11 09:45:47;;;;;;;6.20;5.70;;;27.30;97.20;;;;;;1748642;28;20643;-71
2022/05/11 09:46:38;;;;;;;5.45;5.05;;;27.30;97.20;;;;;;1748648;28;20217;-71
2022/05/11 09:47:33;;;;;;;7.88;5.43;;;27.40;97.20;;;;;;1770320;22;20221;-81
2022/05/11 09:48:30;;;;;;;6.10;5.30;;;27.40;97.20;;;;;;1749272;28;20206;-80
2022/05/11 09:49:27;;;;;;;5.32;4.93;;;27.50;97.20;;;;;;1749680;28;20723;-80
2022/05/11 09:50:20;;;;;;;5.97;5.43;;;27.50;97.20;;;;;;1750065;28;20210;-80
2022/05/11 09:51:20;;;;;;;5.45;5.03;;;27.70;97.20;;;;;;1749516;28;20587;-80
2022/05/11 09:52:27;;;;;;;7.57;5.30;;;27.80;97.20;;;;;;1749504;28;20210;-80
2022/05/11 09:53:25;;;;;;;7.70;5.07;;;27.80;97.20;;;;;;1749898;28;20187;-80
2022/05/11 09:54:29;;;;;;;5.82;5.32;;;27.90;97.20;;;;;;1749821;28;20684;-80
2022/05/11 09:55:25;;;;;;;5.70;5.20;;;28.00;97.20;;;;;;1749852;28;20194;-80
2022/05/11 09:56:22;;;;;;;5.70;5.20;;;28.00;97.20;;;;;;1749553;28;20267;-80